Time;durP1;ratioP1;P1;durP2;ratioP2;P2;SDS_P1;SDS_P2;PMS_P1;PMS_P2;Temp;Humidity;BMP_temperature;BMP_pressure;BME280_temperature;BME280_humidity;BME280_pressure;Samples;Min_cycle;Max_cycle;Signal;HPM_P1;HPM_P2
2021/11/10 00:00:09;;;;;;;1.38;0.65;;;;;;;17.25;65.78;101191.50;4913714;29;20172;-96
2021/11/10 00:02:35;;;;;;;1.85;0.65;;;;;;;17.02;66.49;101191.63;4912404;29;20070;-95
2021/11/10 00:05:01;;;;;;;1.85;0.60;;;;;;;17.32;65.70;101192.69;4918225;29;20033;-95
2021/11/10 00:07:26;;;;;;;1.10;0.43;;;;;;;17.42;64.64;101188.28;4907751;29;20024;-96
2021/11/10 00:09:51;;;;;;;1.25;0.60;;;;;;;17.37;65.79;101190.47;4905336;29;20028;-96
2021/11/10 00:12:17;;;;;;;2.10;0.60;;;;;;;17.38;65.24;101181.53;4905293;29;20032;-96
2021/11/10 00:14:42;;;;;;;1.35;0.73;;;;;;;17.39;65.31;101177.91;4898996;29;20024;-96
2021/11/10 00:17:07;;;;;;;2.60;0.55;;;;;;;17.35;65.66;101173.81;4903925;29;20084;-96
2021/11/10 00:19:33;;;;;;;0.63;0.50;;;;;;;17.44;65.25;101175.69;4905277;29;20064;-96
2021/11/10 00:21:58;;;;;;;1.10;0.50;;;;;;;17.39;65.33;101175.25;4905918;29;20062;-96
2021/11/10 00:24:24;;;;;;;1.30;0.60;;;;;;;17.34;65.75;101173.97;4906098;29;20043;-96
2021/11/10 00:26:49;;;;;;;1.92;0.55;;;;;;;17.14;66.41;101168.53;4907185;29;20044;-96
2021/11/10 00:29:15;;;;;;;0.80;0.43;;;;;;;17.38;65.94;101170.91;4906712;29;20031;-96
2021/11/10 00:31:40;;;;;;;0.90;0.57;;;;;;;17.12;66.43;101167.81;4899366;29;20033;-96
2021/11/10 00:34:06;;;;;;;1.02;0.30;;;;;;;17.23;66.14;101172.19;4900497;29;20056;-96
2021/11/10 00:36:31;;;;;;;3.33;0.82;;;;;;;17.21;66.43;101160.88;4905816;29;20035;-96
2021/11/10 00:38:57;;;;;;;0.80;0.52;;;;;;;17.39;65.79;101161.97;4904657;29;20032;-96
2021/11/10 00:41:24;;;;;;;1.10;0.90;;;;;;;17.34;65.43;101158.03;4896895;29;20051;-96
2021/11/10 00:43:49;;;;;;;1.60;0.43;;;;;;;17.27;66.05;101163.00;4906749;29;20041;-96
2021/11/10 00:46:15;;;;;;;1.38;0.65;;;;;;;17.38;65.91;101149.69;4900590;29;20033;-96
2021/11/10 00:48:40;;;;;;;1.77;0.70;;;;;;;17.13;66.72;101147.41;4904373;29;20039;-96
2021/11/10 00:51:05;;;;;;;3.70;0.70;;;;;;;17.29;66.52;101153.09;4905411;29;20036;-96
2021/11/10 00:53:31;;;;;;;1.35;0.55;;;;;;;17.38;66.15;101132.91;4905752;29;20558;-96
2021/11/10 00:55:57;;;;;;;1.67;0.50;;;;;;;17.36;66.15;101142.84;4903194;29;20076;-96
2021/11/10 00:58:22;;;;;;;1.83;0.70;;;;;;;17.41;65.84;101138.78;4900113;29;20033;-96
2021/11/10 01:00:48;;;;;;;1.30;0.68;;;;;;;17.45;65.95;101140.19;4897309;29;20029;-96
2021/11/10 01:03:14;;;;;;;1.77;0.70;;;;;;;17.44;65.89;101137.72;4896053;29;20031;-96
2021/11/10 01:05:40;;;;;;;0.90;0.60;;;;;;;17.35;66.30;101136.66;4894684;29;20365;-96
2021/11/10 01:08:07;;;;;;;0.70;0.50;;;;;;;17.40;66.21;101131.81;4903613;29;20359;-96
2021/11/10 01:10:33;;;;;;;0.63;0.50;;;;;;;17.42;66.20;101121.91;4903987;29;20043;-96
2021/11/10 01:12:58;;;;;;;1.48;0.70;;;;;;;17.44;66.09;101127.91;4903992;29;20024;-96
2021/11/10 01:15:24;;;;;;;1.63;0.70;;;;;;;17.44;65.75;101125.25;4895644;29;20029;-96
2021/11/10 01:17:50;;;;;;;0.80;0.60;;;;;;;17.19;66.65;101125.66;4902741;29;20025;-96
2021/11/10 01:20:16;;;;;;;1.75;1.10;;;;;;;17.14;67.47;101119.91;4902139;29;20068;-96
2021/11/10 01:22:42;;;;;;;0.95;0.50;;;;;;;17.29;66.84;101117.78;4902244;29;20533;-96
2021/11/10 01:25:09;;;;;;;1.63;0.50;;;;;;;17.25;66.55;101114.53;4903526;29;20116;-96
2021/11/10 01:27:35;;;;;;;1.10;0.40;;;;;;;17.38;66.46;101111.69;4903677;29;20032;-96
2021/11/10 01:30:00;;;;;;;1.33;0.45;;;;;;;17.41;66.26;101112.25;4900071;29;20032;-96
2021/11/10 01:32:26;;;;;;;0.50;0.40;;;;;;;17.34;66.71;101121.72;4895635;29;20101;-96
2021/11/10 01:34:52;;;;;;;0.60;0.50;;;;;;;17.25;67.02;101123.31;4902145;29;20033;-96
2021/11/10 01:37:17;;;;;;;0.43;0.43;;;;;;;17.30;66.90;101109.69;4895718;29;20060;-96
2021/11/10 01:39:43;;;;;;;1.55;0.77;;;;;;;17.30;66.71;101117.66;4903931;29;20024;-96
2021/11/10 01:42:09;;;;;;;3.90;0.50;;;;;;;17.28;67.07;101116.94;4903988;29;20036;-96
2021/11/10 01:44:38;;;;;;;1.50;0.60;;;;;;;17.22;66.97;101120.13;4904325;29;20148;-96
2021/11/10 01:47:07;;;;;;;0.73;0.50;;;;;;;17.41;66.55;101117.56;4904284;29;20033;-96
2021/11/10 01:49:34;;;;;;;2.38;0.88;;;;;;;17.48;66.12;101120.53;4908029;29;20420;-96
2021/11/10 01:52:00;;;;;;;1.33;0.57;;;;;;;17.12;67.33;101117.41;4893652;29;20096;-96
2021/11/10 01:54:28;;;;;;;0.65;0.50;;;;;;;17.37;66.76;101113.47;4902171;29;20025;-96
2021/11/10 01:56:54;;;;;;;1.30;0.70;;;;;;;17.54;66.27;101117.34;4902736;29;20029;-96
2021/11/10 01:59:28;;;;;;;1.17;0.40;;;;;;;17.69;65.65;101109.84;4902545;29;20091;-96
2021/11/10 02:01:54;;;;;;;2.03;0.63;;;;;;;17.45;66.10;101105.69;4903600;29;20391;-96
2021/11/10 02:04:20;;;;;;;0.47;0.40;;;;;;;17.47;66.44;101104.72;4906172;29;20029;-96
2021/11/10 02:06:45;;;;;;;1.73;0.60;;;;;;;17.54;66.13;101101.41;4905780;29;20021;-96
2021/11/10 02:09:11;;;;;;;1.05;0.50;;;;;;;17.54;66.09;101105.91;4906517;29;20044;-96
2021/11/10 02:11:39;;;;;;;3.65;0.60;;;;;;;17.37;66.41;101097.53;4906962;29;20028;-96
2021/11/10 02:14:04;;;;;;;1.55;0.70;;;;;;;17.58;65.84;101102.00;4895251;29;20044;-96
2021/11/10 02:16:30;;;;;;;0.75;0.60;;;;;;;17.34;66.71;101095.19;4883535;29;20037;-96
2021/11/10 02:18:56;;;;;;;2.10;0.70;;;;;;;17.60;66.09;101103.53;4896013;29;20020;-96
2021/11/10 02:21:22;;;;;;;1.35;0.63;;;;;;;17.70;65.51;101098.28;4917445;29;20056;-96
2021/11/10 02:23:47;;;;;;;0.95;0.60;;;;;;;17.77;65.08;101096.78;4917371;29;20568;-96
2021/11/10 02:26:16;;;;;;;1.23;0.57;;;;;;;17.73;65.45;101095.38;4916807;29;20061;-96
2021/11/10 02:28:41;;;;;;;2.08;0.70;;;;;;;17.71;64.67;101094.63;4915121;29;20028;-96
2021/11/10 02:31:07;;;;;;;2.10;0.90;;;;;;;17.41;66.13;101090.16;4918064;29;20115;-96
2021/11/10 02:33:32;;;;;;;1.73;0.60;;;;;;;17.31;66.07;101084.81;4920473;29;20036;-96
2021/11/10 02:36:00;;;;;;;3.75;1.35;;;;;;;17.49;65.75;101084.19;4899673;29;20037;-96
2021/11/10 02:38:25;;;;;;;1.23;0.60;;;;;;;17.37;66.13;101089.59;4898349;29;20021;-96
2021/11/10 02:40:57;;;;;;;1.63;0.77;;;;;;;17.33;66.25;101087.34;4902542;29;20051;-96
2021/11/10 02:43:23;;;;;;;;;;;;;;;17.04;67.35;101082.69;4903044;29;20029;-96
2021/11/10 02:45:49;;;;;;;2.88;0.85;;;;;;;16.78;68.53;101082.19;4902845;29;19919;-96
2021/11/10 02:48:15;;;;;;;2.35;0.88;;;;;;;16.94;67.94;101087.09;4901525;29;20036;-96
2021/11/10 02:50:40;;;;;;;1.90;1.05;;;;;;;17.03;67.58;101081.84;4900440;29;20080;-96
2021/11/10 02:53:06;;;;;;;3.50;1.00;;;;;;;16.97;67.47;101082.38;4898145;29;20033;-96
2021/11/10 02:55:31;;;;;;;0.80;0.80;;;;;;;17.03;67.50;101078.38;4900992;29;20058;-96
2021/11/10 02:57:57;;;;;;;1.88;0.80;;;;;;;17.01;67.58;101088.25;4901453;29;20062;-96
2021/11/10 03:00:24;;;;;;;0.70;0.70;;;;;;;17.10;67.39;101078.66;4901027;29;20021;-96
2021/11/10 03:02:54;;;;;;;2.67;0.98;;;;;;;17.23;67.04;101080.16;4900471;29;20096;-96
2021/11/10 03:05:23;;;;;;;1.23;0.70;;;;;;;17.28;66.68;101078.91;4899978;29;20035;-96
2021/11/10 03:07:49;;;;;;;1.10;0.95;;;;;;;17.27;66.43;101078.09;4896884;29;20031;-96
2021/11/10 03:10:15;;;;;;;2.47;0.90;;;;;;;17.28;66.54;101077.13;4900325;29;20032;-96
2021/11/10 03:12:40;;;;;;;1.35;0.70;;;;;;;17.29;66.60;101064.69;4903738;29;20049;-96
2021/11/10 03:15:08;;;;;;;2.10;0.75;;;;;;;17.37;66.41;101068.34;4905473;29;20025;-96
2021/11/10 03:17:34;;;;;;;1.25;0.60;;;;;;;17.38;66.29;101070.03;4914366;29;20029;-96
2021/11/10 03:19:59;;;;;;;1.30;0.80;;;;;;;17.35;66.05;101070.28;4914124;29;20053;-96
2021/11/10 03:22:25;;;;;;;0.68;0.50;;;;;;;17.37;66.16;101070.16;4905572;29;20092;-96
2021/11/10 03:24:51;;;;;;;1.67;0.82;;;;;;;17.39;65.78;101066.41;4912444;29;20013;-96
2021/11/10 03:27:16;;;;;;;1.73;1.08;;;;;;;17.29;66.15;101072.66;4917224;29;20033;-96
2021/11/10 03:29:43;;;;;;;0.65;0.57;;;;;;;17.31;66.00;101076.00;4918032;29;20040;-96
2021/11/10 03:32:10;;;;;;;1.60;0.95;;;;;;;17.28;66.09;101069.16;4918235;29;20468;-96
2021/11/10 03:34:36;;;;;;;0.77;0.70;;;;;;;17.30;65.86;101072.53;4900285;29;20032;-96
2021/11/10 03:37:03;;;;;;;0.85;0.68;;;;;;;17.27;65.85;101078.09;4900171;29;20048;-96
2021/11/10 03:39:28;;;;;;;0.88;0.50;;;;;;;17.23;66.17;101071.34;4895580;29;20036;-96
2021/11/10 03:41:55;;;;;;;4.03;0.50;;;;;;;17.28;66.04;101070.94;4909155;29;20064;-96
2021/11/10 03:44:21;;;;;;;1.15;0.50;;;;;;;17.13;66.59;101073.13;4919115;29;20040;-96
2021/11/10 03:46:47;;;;;;;0.47;0.32;;;;;;;17.10;66.31;101070.72;4922730;29;20080;-96
2021/11/10 03:49:14;;;;;;;0.45;0.45;;;;;;;17.00;66.77;101075.97;4923631;29;20040;-96
2021/11/10 03:51:39;;;;;;;0.80;0.70;;;;;;;17.02;67.15;101081.97;4923452;29;20040;-96
2021/11/10 03:54:04;;;;;;;0.77;0.50;;;;;;;16.96;67.06;101075.41;4916435;29;20013;-96
2021/11/10 03:56:30;;;;;;;0.50;0.50;;;;;;;16.96;67.06;101078.06;4923482;29;20017;-95
2021/11/10 03:58:55;;;;;;;2.42;0.40;;;;;;;16.89;67.51;101076.03;4923205;29;20024;-96
2021/11/10 04:01:21;;;;;;;1.63;0.60;;;;;;;16.81;68.06;101072.22;4919162;29;20073;-96
2021/11/10 04:03:46;;;;;;;0.40;0.40;;;;;;;16.93;67.72;101070.34;4917081;29;20037;-96
2021/11/10 04:06:12;;;;;;;1.02;0.47;;;;;;;16.82;68.07;101073.91;4903204;29;20036;-96
2021/11/10 04:08:37;;;;;;;1.58;0.57;;;;;;;16.82;68.13;101081.00;4900967;29;20060;-96
2021/11/10 04:11:04;;;;;;;1.13;0.60;;;;;;;17.00;67.62;101082.13;4901475;29;20384;-96
2021/11/10 04:13:33;;;;;;;3.80;0.70;;;;;;;17.03;67.46;101087.16;4898133;29;20024;-96
2021/11/10 04:15:58;;;;;;;1.67;0.63;;;;;;;17.23;66.93;101079.31;4898651;29;20388;-96
2021/11/10 04:18:24;;;;;;;1.00;0.50;;;;;;;17.33;66.75;101082.88;4900143;29;20024;-96
2021/11/10 04:20:49;;;;;;;0.50;0.50;;;;;;;17.43;65.96;101081.09;4900159;29;20583;-96
2021/11/10 04:23:15;;;;;;;1.02;0.80;;;;;;;17.17;66.54;101082.50;4899846;29;20116;-96
2021/11/10 04:25:40;;;;;;;5.55;0.80;;;;;;;17.15;67.10;101079.13;4900250;29;20044;-95
2021/11/10 04:28:06;;;;;;;0.90;0.80;;;;;;;17.09;67.47;101080.50;4914643;29;20080;-96
2021/11/10 04:30:32;;;;;;;0.80;0.80;;;;;;;17.14;67.12;101080.97;4909643;29;20028;-96
2021/11/10 04:32:58;;;;;;;2.83;0.98;;;;;;;17.04;67.55;101091.50;4907720;29;20044;-96
2021/11/10 04:35:24;;;;;;;0.90;0.80;;;;;;;16.99;67.61;101080.44;4902298;29;20383;-96
2021/11/10 04:37:49;;;;;;;0.95;0.75;;;;;;;17.15;67.11;101084.44;4901028;29;20028;-96
2021/11/10 04:40:15;;;;;;;1.27;0.80;;;;;;;17.11;67.45;101088.34;4899531;29;20382;-96
2021/11/10 04:42:40;;;;;;;0.90;0.85;;;;;;;17.13;67.43;101086.38;4902935;29;20122;-96
2021/11/10 04:45:09;;;;;;;0.82;0.77;;;;;;;16.93;67.59;101082.78;4904110;29;20037;-96
2021/11/10 04:47:36;;;;;;;1.30;0.77;;;;;;;17.01;67.45;101075.84;4903074;29;20099;-96
2021/11/10 04:50:04;;;;;;;0.80;0.55;;;;;;;16.91;67.76;101084.72;4900749;29;20142;-96
2021/11/10 04:52:30;;;;;;;1.10;0.80;;;;;;;17.01;67.72;101081.13;4893632;29;20039;-96
2021/11/10 04:54:55;;;;;;;1.08;0.90;;;;;;;17.07;67.49;101094.88;4897286;29;20036;-96
2021/11/10 04:57:21;;;;;;;1.75;0.85;;;;;;;16.79;68.70;101099.81;4899479;29;20032;-96
2021/11/10 04:59:46;;;;;;;0.80;0.80;;;;;;;17.00;68.01;101098.03;4898493;29;20024;-96
2021/11/10 05:04:39;;;;;;;1.48;1.02;;;;;;;17.04;67.89;101103.91;4898441;29;20274;-96
2021/11/10 05:07:05;;;;;;;1.35;1.23;;;;;;;16.65;69.34;101099.13;4898198;29;20028;-96
2021/11/10 05:09:31;;;;;;;1.00;0.90;;;;;;;17.00;68.39;101108.66;4893891;29;20060;-96
2021/11/10 05:11:57;;;;;;;1.27;0.90;;;;;;;17.11;67.72;101098.94;4897861;29;20123;-96
2021/11/10 05:14:23;;;;;;;2.53;1.30;;;;;;;17.13;67.58;101102.31;4897694;29;20088;-96
2021/11/10 05:16:49;;;;;;;2.75;1.00;;;;;;;17.14;67.25;101103.97;4890512;29;20492;-96
2021/11/10 05:19:15;;;;;;;1.08;0.90;;;;;;;17.16;67.69;101107.34;4896652;29;20036;-95
2021/11/10 05:21:40;;;;;;;3.17;1.67;;;;;;;17.32;67.08;101113.03;4897980;29;20092;-96
2021/11/10 05:24:06;;;;;;;0.82;0.82;;;;;;;17.24;67.01;101111.03;4896750;29;20075;-95
2021/11/10 05:26:31;;;;;;;1.35;1.10;;;;;;;17.15;67.49;101110.97;4897249;29;20092;-96
2021/11/10 05:28:58;;;;;;;1.80;1.33;;;;;;;17.19;67.29;101117.72;4898244;29;20076;-96
2021/11/10 05:31:23;;;;;;;1.40;1.10;;;;;;;17.21;67.45;101116.59;4895204;29;20459;-96
2021/11/10 05:33:49;;;;;;;1.27;1.17;;;;;;;17.30;67.00;101115.00;4872728;29;20037;-94
2021/11/10 05:36:14;;;;;;;0.98;0.65;;;;;;;17.44;66.57;101112.00;4864448;29;20029;-95
2021/11/10 05:38:40;;;;;;;1.35;1.25;;;;;;;17.40;66.74;101115.06;4896490;29;20024;-95
2021/11/10 05:41:05;;;;;;;1.48;1.20;;;;;;;17.55;66.03;101113.72;4896158;29;20032;-95
2021/11/10 05:43:31;;;;;;;2.45;1.35;;;;;;;17.53;66.25;101112.16;4896968;29;20028;-94
2021/11/10 05:45:57;;;;;;;1.30;1.20;;;;;;;17.38;66.38;101117.00;4897355;29;20044;-94
2021/11/10 05:48:22;;;;;;;1.33;1.23;;;;;;;17.52;65.84;101110.50;4896984;29;20031;-95
2021/11/10 05:50:48;;;;;;;3.78;1.50;;;;;;;17.56;65.98;101110.09;4891079;29;20037;-95
2021/11/10 05:53:13;;;;;;;1.40;1.30;;;;;;;17.49;66.14;101114.25;4896720;29;20392;-95
2021/11/10 05:55:40;;;;;;;2.45;1.60;;;;;;;17.36;66.22;101117.13;4896497;29;20020;-95
2021/11/10 05:58:06;;;;;;;1.80;1.52;;;;;;;17.34;66.62;101111.09;4896736;29;20040;-96
2021/11/10 06:00:32;;;;;;;1.30;1.20;;;;;;;17.43;66.28;101118.25;4897110;29;20419;-95
2021/11/10 06:02:57;;;;;;;1.17;1.08;;;;;;;17.48;66.31;101112.56;4892868;29;20040;-96
2021/11/10 06:05:23;;;;;;;1.20;1.10;;;;;;;17.47;66.35;101105.56;4897028;29;20032;-95
2021/11/10 06:07:49;;;;;;;1.48;1.38;;;;;;;17.44;65.95;101106.69;4897556;29;20036;-94
2021/11/10 06:10:16;;;;;;;1.50;1.40;;;;;;;17.37;66.58;101110.81;4897351;29;20041;-95
2021/11/10 06:12:43;;;;;;;1.20;1.10;;;;;;;17.49;66.46;101108.09;4897787;29;20052;-95
2021/11/10 06:15:09;;;;;;;1.98;1.80;;;;;;;17.41;66.40;101111.41;4898260;29;20040;-96
2021/11/10 06:17:35;;;;;;;1.88;1.70;;;;;;;17.55;66.31;101113.72;4895131;29;20032;-93
2021/11/10 06:20:02;;;;;;;1.98;1.80;;;;;;;17.44;66.38;101116.47;4903310;29;20060;-94
2021/11/10 06:22:28;;;;;;;1.75;1.55;;;;;;;17.45;66.37;101112.81;4905959;29;20056;-94
2021/11/10 06:24:53;;;;;;;1.92;1.70;;;;;;;17.61;66.01;101129.13;4908053;29;20025;-93
2021/11/10 06:27:19;;;;;;;1.55;1.38;;;;;;;17.51;66.17;101122.91;4911984;29;20035;-94
2021/11/10 06:29:44;;;;;;;1.58;1.40;;;;;;;17.58;66.21;101128.56;4912573;29;20024;-94
2021/11/10 06:32:10;;;;;;;1.65;1.38;;;;;;;17.55;66.17;101129.63;4903294;29;20067;-94
2021/11/10 06:34:36;;;;;;;1.55;1.23;;;;;;;17.42;66.61;101124.56;4913527;29;20427;-95
2021/11/10 06:37:01;;;;;;;1.63;1.45;;;;;;;17.40;66.71;101131.81;4913028;29;20281;-95
2021/11/10 06:39:27;;;;;;;2.55;1.48;;;;;;;17.30;66.91;101122.97;4915436;29;20036;-95
2021/11/10 06:41:52;;;;;;;2.10;1.35;;;;;;;17.43;66.85;101134.19;4915101;29;20037;-94
2021/11/10 06:44:18;;;;;;;1.35;1.25;;;;;;;17.50;66.86;101131.03;4914824;29;20037;-94
2021/11/10 06:46:43;;;;;;;3.03;1.60;;;;;;;17.57;66.10;101133.00;4915761;29;20025;-94
2021/11/10 06:49:08;;;;;;;2.13;1.45;;;;;;;17.58;66.44;101136.53;4907210;29;20032;-94
2021/11/10 06:51:34;;;;;;;1.70;1.60;;;;;;;17.58;66.47;101132.03;4916836;29;20035;-93
2021/11/10 06:53:59;;;;;;;1.95;1.20;;;;;;;17.59;65.97;101125.75;4918960;29;20033;-93
2021/11/10 06:56:25;;;;;;;1.63;1.50;;;;;;;17.56;66.15;101135.81;4917278;29;20064;-95
2021/11/10 06:58:50;;;;;;;2.08;1.50;;;;;;;17.46;66.68;101130.44;4918714;29;20119;-94
2021/11/10 07:01:17;;;;;;;1.75;1.58;;;;;;;17.43;66.93;101136.84;4909553;29;20033;-95
2021/11/10 07:03:42;;;;;;;1.70;1.60;;;;;;;17.37;67.01;101142.69;4898862;29;20060;-95
2021/11/10 07:06:07;;;;;;;1.70;1.60;;;;;;;17.37;67.25;101145.34;4901612;29;20096;-96
2021/11/10 07:08:33;;;;;;;2.33;1.70;;;;;;;17.38;67.26;101155.00;4903185;29;20032;-96
2021/11/10 07:10:58;;;;;;;2.60;1.70;;;;;;;17.36;67.15;101159.59;4904041;29;20107;-96
2021/11/10 07:13:24;;;;;;;3.35;1.75;;;;;;;17.41;67.19;101154.72;4903789;29;20037;-96
2021/11/10 07:15:50;;;;;;;2.88;1.90;;;;;;;17.51;67.10;101160.09;4899638;29;20446;-96
2021/11/10 07:18:15;;;;;;;1.70;1.60;;;;;;;17.43;66.95;101160.72;4887246;29;20119;-95
2021/11/10 07:20:41;;;;;;;2.03;1.65;;;;;;;17.14;67.92;101172.97;4877625;29;20029;-95
2021/11/10 07:23:07;;;;;;;2.10;1.80;;;;;;;17.31;67.91;101171.56;4887710;29;20036;-95
2021/11/10 07:25:32;;;;;;;2.33;1.40;;;;;;;17.39;67.46;101169.09;4882972;29;20156;-95
2021/11/10 07:27:58;;;;;;;3.50;2.58;;;;;;;17.31;67.71;101184.84;4878768;29;20041;-95
2021/11/10 07:30:24;;;;;;;1.75;1.65;;;;;;;17.39;67.62;101182.38;4884486;29;20028;-96
2021/11/10 07:32:50;;;;;;;2.22;2.03;;;;;;;17.32;67.87;101187.38;4879395;29;20044;-95
2021/11/10 07:35:15;;;;;;;2.60;1.92;;;;;;;17.43;67.40;101189.94;4898690;29;20073;-96
2021/11/10 07:37:42;;;;;;;1.60;1.50;;;;;;;17.39;67.66;101198.28;4895180;29;20033;-96
2021/11/10 07:40:08;;;;;;;1.65;1.40;;;;;;;17.50;67.44;101194.75;4903005;29;20028;-96
2021/11/10 07:42:34;;;;;;;2.15;1.70;;;;;;;17.45;67.42;101200.44;4898453;29;20046;-96
2021/11/10 07:45:08;;;;;;;2.03;1.60;;;;;;;17.45;67.57;101198.59;4895353;29;20025;-96
2021/11/10 07:47:46;;;;;;;1.73;1.40;;;;;;;17.41;67.53;101204.31;4888063;29;20052;-96
2021/11/10 07:50:14;;;;;;;4.63;1.40;;;;;;;17.53;67.23;101211.25;4891088;29;20544;-96
2021/11/10 07:52:40;;;;;;;2.88;1.70;;;;;;;17.50;67.23;101216.00;4903273;29;20033;-96
2021/11/10 07:55:06;;;;;;;2.08;1.75;;;;;;;17.52;67.41;101216.69;4913419;29;20310;-95
2021/11/10 07:57:33;;;;;;;1.70;1.50;;;;;;;17.59;67.02;101220.50;4891370;29;20029;-94
2021/11/10 08:00:00;;;;;;;1.45;1.35;;;;;;;17.50;67.52;101219.47;4895055;29;20029;-96
2021/11/10 08:02:26;;;;;;;4.35;1.63;;;;;;;17.64;66.90;101226.28;4907515;29;20092;-95
2021/11/10 08:04:51;;;;;;;4.57;2.08;;;;;;;17.64;66.97;101231.59;4908635;29;20021;-96
2021/11/10 08:07:17;;;;;;;1.92;1.67;;;;;;;17.51;67.15;101220.31;4913055;23;20112;-95
2021/11/10 08:09:42;;;;;;;1.83;1.40;;;;;;;17.52;67.07;101222.00;4906401;29;20041;-94
2021/11/10 08:12:08;;;;;;;1.95;1.80;;;;;;;17.55;67.33;101227.06;4892545;29;20044;-96
2021/11/10 08:14:33;;;;;;;2.83;1.60;;;;;;;17.57;67.45;101225.94;4864733;29;20053;-96
2021/11/10 08:16:58;;;;;;;2.38;2.05;;;;;;;17.60;67.37;101227.50;4864130;29;20496;-96
2021/11/10 08:19:25;;;;;;;3.83;1.60;;;;;;;17.62;67.38;101229.06;4864770;29;20038;-96
2021/11/10 08:21:51;;;;;;;2.20;1.58;;;;;;;17.70;67.28;101235.53;4873291;29;20512;-96
2021/11/10 08:24:17;;;;;;;2.08;1.88;;;;;;;17.77;67.24;101234.91;4880547;29;20053;-96
2021/11/10 08:26:43;;;;;;;3.25;2.10;;;;;;;17.72;67.42;101233.59;4866679;29;20085;-92
2021/11/10 08:29:08;;;;;;;1.70;1.60;;;;;;;17.71;67.52;101234.56;4869385;29;20067;-95
2021/11/10 08:31:34;;;;;;;2.75;1.70;;;;;;;17.80;67.56;101233.78;4864399;29;20033;-95
2021/11/10 08:33:59;;;;;;;1.85;1.60;;;;;;;17.78;67.62;101236.56;4859102;29;20064;-95
2021/11/10 08:36:26;;;;;;;2.28;1.60;;;;;;;17.75;67.71;101239.50;4859826;29;20491;-94
2021/11/10 08:38:53;;;;;;;2.47;1.80;;;;;;;17.76;68.13;101237.69;4858739;29;20489;-94
2021/11/10 08:41:20;;;;;;;1.75;1.50;;;;;;;17.61;67.97;101242.47;4863330;29;20485;-94
2021/11/10 08:43:47;;;;;;;2.25;1.85;;;;;;;17.81;67.84;101236.31;4858814;29;20116;-96
2021/11/10 08:46:12;;;;;;;1.70;1.40;;;;;;;17.95;67.61;101240.47;4862150;29;20063;-96
2021/11/10 08:48:38;;;;;;;1.50;1.40;;;;;;;18.04;67.27;101244.16;4861737;29;20456;-96
2021/11/10 08:51:03;;;;;;;1.70;1.40;;;;;;;18.07;67.48;101249.22;4859486;29;20026;-96
2021/11/10 08:53:29;;;;;;;1.30;1.20;;;;;;;18.16;67.16;101253.72;4859028;29;20037;-95
2021/11/10 08:55:56;;;;;;;1.60;1.30;;;;;;;18.07;66.60;101251.88;4860589;29;20066;-96
2021/11/10 08:58:23;;;;;;;1.40;1.30;;;;;;;18.07;67.46;101257.19;4861708;29;20458;-96
2021/11/10 09:00:49;;;;;;;1.35;1.25;;;;;;;18.17;67.23;101251.91;4865323;29;20393;-96
2021/11/10 09:03:15;;;;;;;1.52;1.35;;;;;;;18.24;67.03;101253.88;4861882;29;20037;-94
2021/11/10 09:05:41;;;;;;;3.58;1.23;;;;;;;18.09;66.90;101246.41;4863485;29;20026;-95
2021/11/10 09:08:06;;;;;;;1.25;1.15;;;;;;;18.47;66.45;101251.03;4861859;29;20093;-96
2021/11/10 09:10:35;;;;;;;1.38;1.20;;;;;;;18.33;67.04;101254.09;4865317;29;20491;-96
2021/11/10 09:13:02;;;;;;;2.15;1.10;;;;;;;18.45;66.12;101260.97;4877639;29;20483;-96
2021/11/10 09:15:31;;;;;;;2.08;1.17;;;;;;;18.55;66.63;101255.69;4863438;29;20034;-95
2021/11/10 09:17:57;;;;;;;2.67;1.42;;;;;;;18.61;66.24;101255.13;4861470;29;20037;-96
2021/11/10 09:20:25;;;;;;;1.30;1.20;;;;;;;18.47;66.36;101252.88;4863817;29;20029;-96
2021/11/10 09:22:50;;;;;;;1.85;1.17;;;;;;;18.60;66.25;101259.63;4861678;29;20033;-96
2021/11/10 09:25:19;;;;;;;1.52;1.05;;;;;;;18.50;66.28;101258.72;4865835;29;20033;-95
2021/11/10 09:27:45;;;;;;;1.20;1.00;;;;;;;18.92;65.73;101252.44;4862017;29;20033;-96
2021/11/10 09:30:15;;;;;;;1.20;0.70;;;;;;;19.08;65.36;101260.72;4862419;29;20033;-96
2021/11/10 09:32:40;;;;;;;1.40;1.10;;;;;;;19.09;65.48;101248.25;4861572;29;20039;-96
2021/11/10 09:35:09;;;;;;;0.88;0.80;;;;;;;19.17;65.64;101254.56;4866117;29;20037;-96
2021/11/10 09:37:37;;;;;;;0.93;0.60;;;;;;;19.26;64.50;101242.22;4861278;29;20030;-95
2021/11/10 09:40:05;;;;;;;3.22;0.93;;;;;;;19.13;64.95;101239.00;4865579;29;20477;-96
2021/11/10 09:42:30;;;;;;;1.52;0.70;;;;;;;19.24;65.17;101238.88;4863313;29;20477;-96
2021/11/10 09:44:56;;;;;;;0.90;0.70;;;;;;;19.49;64.68;101240.13;4872011;29;20067;-96
2021/11/10 09:47:22;;;;;;;0.70;0.60;;;;;;;19.54;64.42;101235.19;4861539;29;20489;-95
2021/11/10 09:49:50;;;;;;;0.60;0.57;;;;;;;19.64;62.96;101232.50;4861004;29;20165;-95
2021/11/10 09:52:16;;;;;;;1.02;0.50;;;;;;;19.49;64.32;101233.94;4861183;29;20037;-95
2021/11/10 09:54:42;;;;;;;0.73;0.70;;;;;;;19.58;63.29;101239.25;4861103;29;20028;-96
2021/11/10 09:57:07;;;;;;;1.27;0.98;;;;;;;19.67;64.27;101242.91;4861118;29;20034;-95
2021/11/10 09:59:33;;;;;;;0.70;0.50;;;;;;;19.68;63.23;101241.06;4861322;29;20028;-96
2021/11/10 10:01:59;;;;;;;0.45;0.30;;;;;;;19.52;64.10;101239.00;4860918;29;20035;-96
2021/11/10 10:04:25;;;;;;;0.38;0.38;;;;;;;19.67;62.96;101242.03;4860890;29;20042;-96
2021/11/10 10:06:52;;;;;;;1.05;0.60;;;;;;;19.26;63.99;101236.06;4860474;29;20026;-95
2021/11/10 10:09:18;;;;;;;0.82;0.65;;;;;;;19.55;62.86;101255.53;4860704;29;20029;-95
2021/11/10 10:11:44;;;;;;;1.00;0.73;;;;;;;19.11;64.85;101246.28;4860571;29;20025;-96
2021/11/10 10:14:09;;;;;;;1.10;0.80;;;;;;;18.89;65.16;101250.06;4862807;29;20021;-95
2021/11/10 10:16:35;;;;;;;1.40;1.25;;;;;;;18.83;65.58;101252.28;4864849;29;20030;-96
2021/11/10 10:19:08;;;;;;;0.90;0.63;;;;;;;19.22;64.08;101254.16;4864685;29;20036;-96
2021/11/10 10:21:39;;;;;;;1.08;0.82;;;;;;;19.19;63.66;101249.09;4864806;29;20664;-95
2021/11/10 10:24:05;;;;;;;0.90;0.70;;;;;;;19.12;63.76;101253.31;4876402;29;20499;-96
2021/11/10 10:26:30;;;;;;;0.73;0.40;;;;;;;19.10;64.23;101261.44;4866936;29;20041;-95
2021/11/10 10:28:58;;;;;;;1.23;0.43;;;;;;;19.02;64.33;101255.97;4863949;29;20436;-96
2021/11/10 10:31:29;;;;;;;0.68;0.40;;;;;;;18.90;64.68;101257.91;4868790;29;20029;-95
2021/11/10 10:34:02;;;;;;;1.30;0.40;;;;;;;18.93;65.07;101260.28;4880407;29;20044;-96
2021/11/10 10:36:30;;;;;;;0.70;0.40;;;;;;;18.91;65.17;101259.56;4868455;29;20026;-96
2021/11/10 10:39:08;;;;;;;0.70;0.40;;;;;;;18.96;65.30;101265.34;4864114;29;20033;-96
2021/11/10 10:41:37;;;;;;;0.30;0.20;;;;;;;18.94;64.98;101269.13;4876405;29;20029;-96
2021/11/10 10:44:07;;;;;;;2.15;0.50;;;;;;;18.72;65.31;101272.78;4865204;29;20120;-96
2021/11/10 10:46:37;;;;;;;1.75;0.75;;;;;;;18.75;65.44;101272.53;4862853;29;20037;-96
2021/11/10 10:49:23;;;;;;;0.60;0.50;;;;;;;18.72;65.90;101264.81;4862917;29;20033;-96
2021/11/10 10:51:52;;;;;;;0.57;0.35;;;;;;;18.84;64.92;101255.78;4863007;29;20109;-96
2021/11/10 10:54:28;;;;;;;1.55;0.40;;;;;;;18.84;65.22;101261.13;4863917;29;20384;-96
2021/11/10 10:56:59;;;;;;;0.22;0.20;;;;;;;18.74;65.58;101266.38;4862880;29;20022;-96
2021/11/10 10:59:26;;;;;;;0.60;0.50;;;;;;;18.88;65.78;101267.84;4881475;29;20532;-96
2021/11/10 11:01:54;;;;;;;0.32;0.30;;;;;;;19.10;65.49;101260.59;4872378;29;20033;-96
2021/11/10 11:04:28;;;;;;;1.17;0.32;;;;;;;19.25;65.04;101255.69;4863814;29;20026;-96
2021/11/10 11:07:01;;;;;;;1.38;0.30;;;;;;;19.36;64.12;101255.53;4863013;29;20058;-96
2021/11/10 11:09:30;;;;;;;0.43;0.43;;;;;;;19.24;64.30;101254.84;4859474;29;20397;-96
2021/11/10 11:11:59;;;;;;;0.40;0.40;;;;;;;19.17;65.00;101257.25;4853688;29;20029;-96
2021/11/10 11:14:55;;;;;;;1.15;0.20;;;;;;;19.74;63.27;101254.66;4863906;29;20030;-96
2021/11/10 11:17:21;;;;;;;0.38;0.30;;;;;;;19.57;62.61;101253.56;4863444;29;20037;-96
2021/11/10 11:20:11;;;;;;;0.30;0.28;;;;;;;19.83;62.18;101246.78;4864536;29;20052;-96
2021/11/10 11:22:51;;;;;;;0.40;0.25;;;;;;;19.87;62.72;101240.22;4863128;29;20038;-95